createdAt,value
2023-08-11T00:01:00.747Z,101858.75
2023-08-11T00:03:48.139Z,101832.03
2023-08-11T00:06:35.264Z,101870.28
2023-08-11T00:09:22.366Z,101863.94
2023-08-11T00:12:09.346Z,101858.66
2023-08-11T00:14:56.597Z,101856.94
2023-08-11T00:17:43.494Z,101857.03
2023-08-11T00:20:30.907Z,101847.59
2023-08-11T00:23:18.240Z,101861.53
2023-08-11T00:26:05.527Z,101860.56
2023-08-11T00:28:52.595Z,101859.53
2023-08-11T00:31:39.799Z,101869.22
2023-08-11T00:34:27.058Z,101864.72
2023-08-11T00:37:14.554Z,101867.41
2023-08-11T00:40:01.674Z,101870.00
2023-08-11T00:42:48.813Z,101868.16
2023-08-11T00:45:35.848Z,101861.91
2023-08-11T00:48:22.980Z,101864.91
2023-08-11T00:51:10.052Z,101874.41
2023-08-11T00:53:57.348Z,101856.94
2023-08-11T00:56:44.426Z,101872.59
2023-08-11T00:59:33.368Z,101819.75
2023-08-11T01:02:20.425Z,101869.91
2023-08-11T01:05:07.342Z,101873.44
2023-08-11T01:08:04.906Z,101873.44
2023-08-11T01:11:12.353Z,101872.50
2023-08-11T01:14:06.635Z,101874.31
2023-08-11T01:16:54.327Z,101880.66
2023-08-11T01:19:52.491Z,101865.75
2023-08-11T01:22:43.273Z,101867.31
2023-08-11T01:25:31.150Z,101812.69
2023-08-11T01:28:20.029Z,101869.03
2023-08-11T01:31:07.116Z,101850.69
2023-08-11T01:33:54.184Z,101867.31
2023-08-11T01:36:41.076Z,101862.13
2023-08-11T01:39:28.401Z,101866.34
2023-08-11T01:42:15.647Z,101863.63
2023-08-11T01:45:03.515Z,101875.28
2023-08-11T01:47:51.006Z,101873.53
2023-08-11T01:50:40.043Z,101873.53
2023-08-11T01:53:27.132Z,101876.31
2023-08-11T01:56:14.299Z,101870.19
2023-08-11T01:59:02.216Z,101870.28
2023-08-11T02:01:49.291Z,101860.75
2023-08-11T02:04:36.286Z,101875.59
2023-08-11T02:07:23.332Z,101879.22
2023-08-11T02:10:10.472Z,101870.41
2023-08-11T02:12:58.305Z,101875.78
2023-08-11T02:15:45.686Z,101873.28
2023-08-11T02:18:32.811Z,101873.81
2023-08-11T02:21:19.978Z,101873.00
2023-08-11T02:24:06.984Z,101880.19
2023-08-11T02:26:53.906Z,101867.69
2023-08-11T02:29:41.025Z,101874.81
2023-08-11T02:32:28.283Z,101864.91
2023-08-11T02:35:15.332Z,101873.81
2023-08-11T02:38:02.321Z,101859.06
2023-08-11T02:40:49.365Z,101874.81
2023-08-11T02:43:36.492Z,101867.69
2023-08-11T02:46:24.775Z,101847.66
2023-08-11T02:49:11.812Z,101869.41
2023-08-11T02:51:58.887Z,101870.41
2023-08-11T02:54:45.848Z,101808.88
2023-08-11T02:57:33.078Z,101868.94
2023-08-11T03:00:20.061Z,101876.81
2023-08-11T03:03:07.732Z,101882.31
2023-08-11T03:05:54.923Z,101872.59
2023-08-11T03:08:42.459Z,101876.06
2023-08-11T03:11:30.271Z,101871.53
2023-08-11T03:14:17.296Z,101877.78
2023-08-11T03:17:04.414Z,101863.81
2023-08-11T03:19:51.625Z,101876.72
2023-08-11T03:22:39.859Z,101867.69
2023-08-11T03:25:27.847Z,101863.47
2023-08-11T03:28:15.024Z,101865.13
2023-08-11T03:31:03.517Z,101856.16
2023-08-11T03:33:54.890Z,101851.28
2023-08-11T03:36:42.618Z,101861.53
2023-08-11T03:39:30.102Z,101868.66
2023-08-11T03:42:18.939Z,101869.63
2023-08-11T03:45:05.802Z,101876.91
2023-08-11T03:47:54.861Z,101873.38
2023-08-11T03:50:44.285Z,101876.91
2023-08-11T03:53:31.405Z,101864.44
2023-08-11T03:56:18.436Z,101857.78
2023-08-11T03:59:07.882Z,101882.41
2023-08-11T04:01:54.799Z,101878.09
2023-08-11T04:04:42.288Z,101880.94
2023-08-11T04:07:29.340Z,101884.44
2023-08-11T04:10:18.264Z,101885.34
2023-08-11T04:13:05.232Z,101877.22
2023-08-11T04:15:52.959Z,101866.06
2023-08-11T04:18:40.225Z,101879.97
2023-08-11T04:21:27.646Z,101886.34
2023-08-11T04:24:14.624Z,101886.44
2023-08-11T04:27:01.805Z,101885.56
2023-08-11T04:29:49.104Z,101876.72
2023-08-11T04:32:36.643Z,101893.81
2023-08-11T04:35:27.816Z,101851.94
2023-08-11T04:38:15.940Z,101884.13
2023-08-11T04:41:04.252Z,101824.47
2023-08-11T04:43:51.249Z,101881.53
2023-08-11T04:46:38.257Z,101883.34
2023-08-11T04:49:25.242Z,101886.03
2023-08-11T04:52:12.360Z,101875.19
2023-08-11T04:54:59.413Z,101879.59
2023-08-11T04:57:46.537Z,101876.16
2023-08-11T05:00:36.804Z,101880.66
2023-08-11T05:03:24.356Z,101879.69
2023-08-11T05:06:11.380Z,101883.16
2023-08-11T05:08:58.365Z,101884.91
2023-08-11T05:11:45.217Z,101878.44
2023-08-11T05:14:32.346Z,101886.53
2023-08-11T05:17:19.498Z,101864.63
2023-08-11T05:20:06.499Z,101883.84
2023-08-11T05:22:53.697Z,101874.03
2023-08-11T05:25:40.784Z,101884.03
2023-08-11T05:28:27.952Z,101881.34
2023-08-11T05:31:15.048Z,101871.50
2023-08-11T05:34:01.990Z,101875.09
2023-08-11T05:36:48.878Z,101869.69
2023-08-11T05:39:38.274Z,101797.94
2023-08-11T05:42:27.825Z,101875.19
2023-08-11T05:45:17.725Z,101877.97
2023-08-11T05:48:05.397Z,101879.03
2023-08-11T05:50:52.397Z,101881.72
2023-08-11T05:53:39.416Z,101883.44
2023-08-11T05:56:26.727Z,101887.94
2023-08-11T05:59:13.803Z,101879.13
2023-08-11T06:02:00.907Z,101881.94
2023-08-11T06:04:48.000Z,101894.50
2023-08-11T06:07:35.179Z,101863.19
2023-08-11T06:10:22.252Z,101889.13
2023-08-11T06:13:09.169Z,101885.56
2023-08-11T06:15:56.231Z,101886.53
2023-08-11T06:18:43.483Z,101893.72
2023-08-11T06:21:30.845Z,101909.13
2023-08-11T06:24:18.152Z,101903.16
2023-08-11T06:27:05.245Z,101910.53
2023-08-11T06:29:52.454Z,101904.63
2023-08-11T06:32:39.476Z,101905.75
2023-08-11T06:35:27.717Z,101904.22
2023-08-11T06:38:14.747Z,101911.69
2023-08-11T06:41:01.825Z,101915.63
2023-08-11T06:43:48.892Z,101916.47
2023-08-11T06:46:36.032Z,101870.28
2023-08-11T06:49:23.073Z,101913.22
2023-08-11T06:52:10.180Z,101911.91
2023-08-11T06:54:57.238Z,101908.03
2023-08-11T06:57:44.655Z,101905.94
2023-08-11T07:00:32.203Z,101903.06
2023-08-11T07:03:19.334Z,101893.19
2023-08-11T07:06:06.358Z,101907.19
2023-08-11T07:08:53.379Z,101909.69
2023-08-11T07:11:40.308Z,101912.28
2023-08-11T07:14:27.545Z,101895.47
2023-08-11T07:17:14.603Z,101914.50
2023-08-11T07:20:01.530Z,101923.34
2023-08-11T07:22:48.580Z,101909.78
2023-08-11T07:25:35.625Z,101922.03
2023-08-11T07:28:23.110Z,101913.97
2023-08-11T07:31:10.237Z,101914.59
2023-08-11T07:33:57.329Z,101916.91
2023-08-11T07:36:44.229Z,101923.06
2023-08-11T07:39:31.743Z,101926.53
2023-08-11T07:42:21.531Z,101938.25
2023-08-11T07:45:08.586Z,101925.94
2023-08-11T07:47:55.689Z,101929.03
2023-08-11T07:50:42.887Z,101938.09
2023-08-11T07:53:29.955Z,101934.63
2023-08-11T07:56:17.043Z,101924.81
2023-08-11T07:59:04.211Z,101932.91
2023-08-11T08:01:51.387Z,101930.94
2023-08-11T08:04:38.416Z,101940.88
2023-08-11T08:07:25.631Z,101955.63
2023-08-11T08:10:12.960Z,101954.00
2023-08-11T08:13:01.251Z,101935.81
2023-08-11T08:15:48.170Z,101955.50
2023-08-11T08:18:35.257Z,101943.94
2023-08-11T08:21:22.207Z,101950.38
2023-08-11T08:24:09.469Z,101964.78
2023-08-11T08:26:56.589Z,101896.03
2023-08-11T08:29:43.873Z,101950.97
2023-08-11T08:32:30.847Z,101955.88
2023-08-11T08:35:18.032Z,101966.25
2023-08-11T08:38:05.004Z,101970.41
2023-08-11T08:40:55.313Z,101973.97
2023-08-11T08:43:42.666Z,101981.25
2023-08-11T08:46:31.345Z,101980.38
2023-08-11T08:49:30.423Z,101968.16
2023-08-11T08:52:20.959Z,101996.50
2023-08-11T08:55:08.298Z,101978.47
2023-08-11T08:57:55.513Z,101980.03
2023-08-11T09:00:42.447Z,101968.97
2023-08-11T09:03:29.791Z,101981.00
2023-08-11T09:06:20.339Z,101957.06
2023-08-11T09:09:07.742Z,101979.53
2023-08-11T09:11:54.775Z,101969.19
2023-08-11T09:14:43.060Z,101964.31
2023-08-11T09:17:30.090Z,101972.97
2023-08-11T09:20:17.197Z,101967.31
2023-08-11T09:23:04.581Z,101967.03
2023-08-11T09:28:33.754Z,101937.00
2023-08-11T09:31:01.040Z,101969.50
2023-08-11T09:33:29.177Z,101967.47
2023-08-11T09:35:56.411Z,101975.91
2023-08-11T09:38:26.287Z,101976.50
2023-08-11T09:40:53.315Z,101978.69
2023-08-11T09:43:20.373Z,101983.50
2023-08-11T09:45:47.332Z,101978.66
2023-08-11T09:48:14.293Z,101973.63
2023-08-11T09:50:42.562Z,101966.97
2023-08-11T09:53:10.888Z,101972.06
2023-08-11T09:55:41.973Z,101959.25
2023-08-11T09:58:10.541Z,101963.56
2023-08-11T10:00:39.588Z,101972.22
2023-08-11T10:03:11.130Z,101971.06
2023-08-11T10:05:43.190Z,101964.41
2023-08-11T10:08:18.454Z,101972.94
2023-08-11T10:10:45.835Z,101949.19
2023-08-11T10:13:16.852Z,101979.88
2023-08-11T10:15:44.712Z,101972.72
2023-08-11T10:18:12.188Z,101980.72
2023-08-11T10:20:39.762Z,101986.44
2023-08-11T10:23:07.892Z,101982.56
2023-08-11T10:25:36.617Z,101967.97
2023-08-11T10:28:08.313Z,101972.50
2023-08-11T10:30:35.470Z,101979.66
2023-08-11T10:33:10.352Z,101972.63
2023-08-11T10:35:47.089Z,101970.22
2023-08-11T10:38:23.625Z,101973.16
2023-08-11T10:40:50.632Z,101973.25
2023-08-11T10:43:28.889Z,101985.13
2023-08-11T10:45:55.873Z,102001.66
2023-08-11T10:48:26.776Z,101967.03
2023-08-11T10:50:53.944Z,102001.88
2023-08-11T10:53:22.117Z,102013.69
2023-08-11T10:56:03.155Z,102005.25
2023-08-11T10:58:34.024Z,102002.63
2023-08-11T11:01:01.448Z,102014.53
2023-08-11T11:03:28.625Z,102014.09
2023-08-11T11:05:55.745Z,102018.63
2023-08-11T11:08:22.759Z,102023.81
2023-08-11T11:10:51.058Z,102018.78
2023-08-11T11:13:18.595Z,102018.28
2023-08-11T11:15:45.822Z,102015.19
2023-08-11T11:18:13.187Z,102020.28
2023-08-11T11:20:40.346Z,102011.00
2023-08-11T11:23:07.419Z,102009.97
2023-08-11T11:25:34.534Z,102009.09
2023-08-11T11:28:01.920Z,102005.63
2023-08-11T11:30:29.260Z,101999.38
2023-08-11T11:32:58.068Z,102000.63
2023-08-11T11:35:25.320Z,102033.50
2023-08-11T11:37:52.586Z,102026.88
2023-08-11T11:40:19.760Z,102015.16
2023-08-11T11:42:48.294Z,102015.63
2023-08-11T11:45:16.133Z,102027.59
2023-08-11T11:47:43.624Z,102037.28
2023-08-11T11:50:10.898Z,102047.81
2023-08-11T11:52:38.348Z,102046.91
2023-08-11T11:55:07.573Z,102045.22
2023-08-11T11:57:35.383Z,102034.13
2023-08-11T12:00:04.645Z,102037.75
2023-08-11T12:02:41.530Z,102033.88
2023-08-11T12:05:09.624Z,102040.38
2023-08-11T12:07:37.841Z,102020.00
2023-08-11T12:10:25.871Z,102020.09
2023-08-11T12:13:19.858Z,102015.97
2023-08-11T12:16:10.226Z,102031.03
2023-08-11T12:18:59.303Z,102019.41
2023-08-11T12:21:47.724Z,102006.16
2023-08-11T12:24:34.873Z,102020.09
2023-08-11T12:27:21.905Z,102004.16
2023-08-11T12:30:08.895Z,102025.13
2023-08-11T12:32:55.992Z,102012.53
2023-08-11T12:35:43.127Z,102002.34
2023-08-11T12:38:36.100Z,102009.31
2023-08-11T12:41:23.027Z,101992.09
2023-08-11T12:44:10.126Z,101994.13
2023-08-11T12:46:57.045Z,101982.91
2023-08-11T12:49:44.194Z,101982.63
2023-08-11T12:52:31.124Z,101981.31
2023-08-11T12:55:18.266Z,101987.09
2023-08-11T12:58:05.289Z,101978.66
2023-08-11T13:00:52.951Z,101989.78
2023-08-11T13:03:39.922Z,101975.00
2023-08-11T13:06:27.011Z,101980.75
2023-08-11T13:09:13.917Z,101981.22
2023-08-11T13:12:00.985Z,101976.22
2023-08-11T13:14:47.933Z,101966.88
2023-08-11T13:17:35.043Z,101954.56
2023-08-11T13:20:22.619Z,101936.69
2023-08-11T13:23:09.640Z,101954.66
2023-08-11T13:25:56.523Z,101976.47
2023-08-11T13:28:43.730Z,101959.34
2023-08-11T13:31:38.348Z,101947.69
2023-08-11T13:34:25.534Z,101967.59
2023-08-11T13:37:12.491Z,101968.44
2023-08-11T13:39:59.817Z,101967.09
2023-08-11T13:42:46.747Z,101968.81
2023-08-11T13:45:33.858Z,101962.44
2023-08-11T13:48:22.869Z,101973.31
2023-08-11T13:51:11.624Z,101963.03
2023-08-11T13:53:58.508Z,101965.84
2023-08-11T13:56:45.513Z,101981.38
2023-08-11T13:59:32.410Z,101970.13
2023-08-11T14:02:19.455Z,101960.69
2023-08-11T14:05:06.425Z,101965.81
2023-08-11T14:07:53.649Z,101966.75
2023-08-11T14:10:40.605Z,101968.22
2023-08-11T14:13:27.630Z,101959.88
2023-08-11T14:16:18.228Z,101972.25
2023-08-11T14:19:05.368Z,101969.75
2023-08-11T14:21:52.352Z,101967.38
2023-08-11T14:24:39.257Z,101980.19
2023-08-11T14:27:26.806Z,101977.09
2023-08-11T14:30:13.829Z,101956.63
2023-08-11T14:33:00.918Z,101975.47
2023-08-11T14:35:48.145Z,101954.28
2023-08-11T14:38:35.303Z,101963.03
2023-08-11T14:41:22.452Z,101974.38
2023-08-11T14:44:09.404Z,101969.28
2023-08-11T14:46:56.470Z,101973.97
2023-08-11T14:49:23.529Z,101972.06
2023-08-11T14:51:50.732Z,101971.09
2023-08-11T14:54:18.001Z,101954.78
2023-08-11T14:56:45.041Z,101946.72
2023-08-11T14:59:12.161Z,101955.34
2023-08-11T15:01:39.824Z,101946.13
2023-08-11T15:04:06.851Z,101961.69
2023-08-11T15:06:33.986Z,101966.41
2023-08-11T15:09:01.071Z,101952.19
2023-08-11T15:11:28.127Z,101953.13
2023-08-11T15:13:55.267Z,101940.44
2023-08-11T15:16:22.446Z,101933.34
2023-08-11T15:18:49.468Z,101954.88
2023-08-11T15:21:16.517Z,101957.28
2023-08-11T15:23:43.716Z,101948.16
2023-08-11T15:26:11.085Z,101949.00
2023-08-11T15:28:38.049Z,101935.94
2023-08-11T15:31:05.779Z,101947.09
2023-08-11T15:33:52.887Z,101946.13
2023-08-11T15:36:39.857Z,101946.81
2023-08-11T15:39:27.126Z,101950.19
2023-08-11T15:42:14.225Z,101943.72
2023-08-11T15:45:01.365Z,101939.09
2023-08-11T15:47:49.397Z,101940.84
2023-08-11T15:50:36.431Z,101940.72
2023-08-11T15:53:23.562Z,101938.03
2023-08-11T15:56:10.587Z,101937.19
2023-08-11T15:58:57.698Z,101935.53
2023-08-11T16:01:55.671Z,101922.28
2023-08-11T16:04:50.726Z,101938.91
2023-08-11T16:07:17.787Z,101932.56
2023-08-11T16:09:44.817Z,101914.50
2023-08-11T16:12:12.172Z,101938.63
2023-08-11T16:14:39.448Z,101931.41
2023-08-11T16:17:06.832Z,101920.53
2023-08-11T16:19:35.981Z,101919.66
2023-08-11T16:22:03.118Z,101918.59
2023-08-11T16:24:30.125Z,101916.66
2023-08-11T16:27:18.494Z,101906.88
2023-08-11T16:30:05.442Z,101908.50
2023-08-11T16:32:52.433Z,101907.59
2023-08-11T16:35:39.377Z,101899.53
2023-08-11T16:38:26.451Z,101903.00
2023-08-11T16:41:13.525Z,101904.91
2023-08-11T16:44:00.853Z,101904.06
2023-08-11T16:46:47.795Z,101904.06
2023-08-11T16:49:34.853Z,101903.19
2023-08-11T16:52:21.764Z,101905.91
2023-08-11T16:55:08.781Z,101897.81
2023-08-11T16:57:55.823Z,101891.00
2023-08-11T17:00:43.080Z,101897.13
2023-08-11T17:03:30.114Z,101891.66
2023-08-11T17:06:17.316Z,101889.06
2023-08-11T17:09:04.567Z,101869.97
2023-08-11T17:11:51.597Z,101885.53
2023-08-11T17:14:38.617Z,101884.75
2023-08-11T17:17:25.812Z,101881.69
2023-08-11T17:20:12.850Z,101867.94
2023-08-11T17:22:59.823Z,101891.72
2023-08-11T17:25:46.706Z,101882.84
2023-08-11T17:28:33.669Z,101885.66
2023-08-11T17:31:20.655Z,101884.69
2023-08-11T17:34:07.801Z,101883.81
2023-08-11T17:36:55.061Z,101881.97
2023-08-11T17:39:42.155Z,101870.09
2023-08-11T17:42:29.235Z,101828.56
2023-08-11T17:45:16.354Z,101892.66
2023-08-11T17:48:03.443Z,101844.81
2023-08-11T17:50:50.694Z,101886.44
2023-08-11T17:53:37.800Z,101882.84
2023-08-11T17:56:25.108Z,101883.72
2023-08-11T17:59:13.150Z,101881.03
2023-08-11T18:02:00.305Z,101876.50
2023-08-11T18:04:47.329Z,101866.69
2023-08-11T18:07:34.933Z,101871.22
2023-08-11T18:10:22.444Z,101875.81
2023-08-11T18:13:09.723Z,101878.41
2023-08-11T18:15:56.799Z,101873.03
2023-08-11T18:18:43.838Z,101870.34
2023-08-11T18:21:30.900Z,101860.28
2023-08-11T18:24:17.939Z,101868.53
2023-08-11T18:26:45.169Z,101867.75
2023-08-11T18:29:32.270Z,101858.06
2023-08-11T18:32:19.550Z,101811.66
2023-08-11T18:35:06.616Z,101867.84
2023-08-11T18:37:53.689Z,101864.41
2023-08-11T18:40:40.694Z,101861.72
2023-08-11T18:43:28.092Z,101858.34
2023-08-11T18:46:15.447Z,101856.94
2023-08-11T18:49:02.804Z,101847.88
2023-08-11T18:51:50.193Z,101856.47
2023-08-11T18:54:37.321Z,101847.38
2023-08-11T18:57:24.246Z,101852.31
2023-08-11T19:00:11.634Z,101858.84
2023-08-11T19:02:58.666Z,101860.50
2023-08-11T19:05:45.943Z,101864.13
2023-08-11T19:08:33.183Z,101874.03
2023-08-11T19:11:20.443Z,101863.28
2023-08-11T19:14:07.484Z,101866.91
2023-08-11T19:16:58.261Z,101864.41
2023-08-11T19:19:45.393Z,101819.84
2023-08-11T19:22:32.427Z,101867.78
2023-08-11T19:25:19.626Z,101837.31
2023-08-11T19:28:06.673Z,101865.28
2023-08-11T19:30:54.060Z,101850.22
2023-08-11T19:33:41.435Z,101866.72
2023-08-11T19:36:28.536Z,101863.09
2023-08-11T19:39:15.687Z,101855.22
2023-08-11T19:42:02.676Z,101870.09
2023-08-11T19:44:49.932Z,101816.69
2023-08-11T19:47:37.078Z,101847.78
2023-08-11T19:50:24.591Z,101845.00
2023-08-11T19:53:11.743Z,101833.00
2023-08-11T19:55:59.579Z,101797.38
2023-08-11T19:58:46.579Z,101856.91
2023-08-11T20:01:33.859Z,101837.50
2023-08-11T20:04:21.456Z,101864.13
2023-08-11T20:07:08.908Z,101861.72
2023-08-11T20:09:56.094Z,101854.63
2023-08-11T20:12:43.124Z,101852.72
2023-08-11T20:15:30.744Z,101848.38
2023-08-11T20:18:17.902Z,101839.84
2023-08-11T20:21:05.312Z,101837.16
2023-08-11T20:23:52.784Z,101852.44
2023-08-11T20:26:39.919Z,101857.13
2023-08-11T20:29:27.582Z,101849.25
2023-08-11T20:32:14.940Z,101857.50
2023-08-11T20:35:01.984Z,101844.16
2023-08-11T20:37:49.078Z,101846.66
2023-08-11T20:40:36.308Z,101843.88
2023-08-11T20:43:23.632Z,101829.09
2023-08-11T20:46:10.826Z,101842.06
2023-08-11T20:48:57.906Z,101836.66
2023-08-11T20:51:45.040Z,101837.56
2023-08-11T20:54:32.039Z,101835.59
2023-08-11T20:57:19.014Z,101837.25
2023-08-11T21:00:05.988Z,101828.13
2023-08-11T21:02:53.044Z,101828.72
2023-08-11T21:05:40.058Z,101833.13
2023-08-11T21:08:27.266Z,101831.28
2023-08-11T21:11:14.202Z,101825.91
2023-08-11T21:14:01.808Z,101818.81
2023-08-11T21:16:48.760Z,101826.00
2023-08-11T21:19:35.898Z,101813.59
2023-08-11T21:22:23.114Z,101825.25
2023-08-11T21:25:10.191Z,101809.50
2023-08-11T21:27:57.137Z,101819.84
2023-08-11T21:30:44.375Z,101812.09
2023-08-11T21:33:31.412Z,101816.28
2023-08-11T21:36:18.451Z,101818.13
2023-08-11T21:39:05.515Z,101808.22
2023-08-11T21:41:52.677Z,101816.19
2023-08-11T21:44:39.643Z,101796.81
2023-08-11T21:47:26.774Z,101808.22
2023-08-11T21:50:13.843Z,101802.00
2023-08-11T21:53:13.322Z,101803.03
2023-08-11T21:56:07.725Z,101801.53
2023-08-11T21:58:55.559Z,101802.00
2023-08-11T22:01:42.623Z,101738.34
2023-08-11T22:04:29.863Z,101799.22
2023-08-11T22:07:17.295Z,101800.16
2023-08-11T22:10:04.741Z,101796.63
2023-08-11T22:12:51.811Z,101762.06
2023-08-11T22:15:39.451Z,101798.34
2023-08-11T22:18:26.401Z,101788.47
2023-08-11T22:21:13.452Z,101797.31
2023-08-11T22:24:00.401Z,101784.69
2023-08-11T22:26:47.570Z,101745.81
2023-08-11T22:29:34.500Z,101775.78
2023-08-11T22:32:21.659Z,101782.88
2023-08-11T22:35:08.666Z,101772.41
2023-08-11T22:37:55.928Z,101781.22
2023-08-11T22:40:42.841Z,101773.25
2023-08-11T22:43:30.040Z,101723.44
2023-08-11T22:46:17.085Z,101760.59
2023-08-11T22:49:04.351Z,101779.50
2023-08-11T22:51:51.528Z,101774.22
2023-08-11T22:54:38.486Z,101778.63
2023-08-11T22:57:25.627Z,101766.16
2023-08-11T23:00:12.759Z,101769.72
2023-08-11T23:03:02.985Z,101754.19
2023-08-11T23:05:50.196Z,101764.44
2023-08-11T23:08:37.211Z,101762.50
2023-08-11T23:11:24.336Z,101763.38
2023-08-11T23:14:11.505Z,101763.28
2023-08-11T23:16:58.526Z,101757.91
2023-08-11T23:19:45.603Z,101754.34
2023-08-11T23:22:32.711Z,101762.41
2023-08-11T23:25:19.876Z,101747.63
2023-08-11T23:28:07.047Z,101763.38
2023-08-11T23:30:53.989Z,101765.97
2023-08-11T23:33:41.369Z,101762.34
2023-08-11T23:36:28.467Z,101759.72
2023-08-11T23:39:15.548Z,101755.41
2023-08-11T23:42:02.562Z,101750.91
2023-08-11T23:44:49.606Z,101738.03
2023-08-11T23:47:37.021Z,101720.75
2023-08-11T23:50:24.395Z,101752.50
2023-08-11T23:53:11.490Z,101745.31
2023-08-11T23:55:58.534Z,101747.91
2023-08-11T23:58:45.521Z,101748.88
